Time;durP1;ratioP1;P1;durP2;ratioP2;P2;SDS_P1;SDS_P2;PMS_P1;PMS_P2;Temp;Humidity;BMP_temperature;BMP_pressure;BME280_temperature;BME280_humidity;BME280_pressure;Samples;Min_cycle;Max_cycle;Signal;HPM_P1;HPM_P2
2023/01/26 00:02:04;;;;;;;;;;;;;;;-10.84;56.44;97507.91;6206147;28;19921;-69
2023/01/26 00:05:05;;;;;;;;;;;;;;;-11.11;56.83;97483.41;6223847;28;19925;-69
2023/01/26 00:08:07;;;;;;;;;;;;;;;-10.91;57.47;97466.22;6223974;28;19921;-69
2023/01/26 00:11:10;;;;;;;;;;;;;;;-10.95;56.67;97461.88;6223690;28;19932;-69
2023/01/26 00:14:14;;;;;;;;;;;;;;;-10.98;57.12;97461.78;6223765;28;19933;-69
2023/01/26 00:17:16;;;;;;;;;;;;;;;-11.09;57.03;97480.94;6223220;28;20318;-69
2023/01/26 00:20:17;;;;;;;;;;;;;;;-11.08;56.70;97485.19;6224134;28;20395;-68
2023/01/26 00:23:23;;;;;;;;;;;;;;;-11.11;57.09;97497.81;6206748;28;19925;-69
2023/01/26 00:26:27;;;;;;;;;;;;;;;-11.31;57.24;97490.44;6206298;28;20410;-69
2023/01/26 00:29:33;;;;;;;;;;;;;;;-11.29;57.50;97482.91;6223642;28;19932;-69
2023/01/26 00:32:37;;;;;;;;;;;;;;;-11.10;57.48;97469.03;6223655;28;19925;-69
2023/01/26 00:35:43;;;;;;;;;;;;;;;-11.05;57.06;97457.31;6223419;28;19925;-69
2023/01/26 00:38:46;;;;;;;;;;;;;;;-11.12;56.81;97461.38;6222900;28;19933;-70
2023/01/26 00:45:14;;;;;;;;;;;;;;;-11.09;56.61;97501.28;6223138;28;19925;-68
2023/01/26 00:48:17;;;;;;;;;;;;;;;-11.06;56.58;97514.06;6222906;28;19925;-69
2023/01/26 00:51:18;;;;;;;;;;;;;;;-11.14;56.76;97508.75;6204775;28;19932;-68
2023/01/26 00:54:20;;;;;;;;;;;;;;;-11.26;57.19;97512.56;6222896;28;19929;-69
2023/01/26 00:57:21;;;;;;;;;;;;;;;-11.19;56.68;97500.13;6223043;28;20294;-69
2023/01/26 01:00:23;;;;;;;;;;;;;;;-11.23;57.58;97487.28;6222771;28;19926;-69
2023/01/26 01:03:24;;;;;;;;;;;;;;;-11.30;57.22;97487.09;6223003;28;20382;-69
2023/01/26 01:06:25;;;;;;;;;;;;;;;-11.32;57.16;97478.59;6222726;28;19926;-68
2023/01/26 01:09:31;;;;;;;;;;;;;;;-11.18;57.30;97470.47;6222635;28;19925;-69
2023/01/26 01:12:35;;;;;;;;;;;;;;;-10.93;56.73;97472.91;6222422;28;19925;-69
2023/01/26 01:15:37;;;;;;;;;;;;;;;-11.09;56.93;97478.41;6221993;28;19929;-69
2023/01/26 01:18:38;;;;;;;;;;;;;;;-11.14;56.90;97487.56;6222481;28;19925;-69
2023/01/26 01:21:39;;;;;;;;;;;;;;;-11.26;57.27;97493.16;6221996;28;19926;-69
2023/01/26 01:24:41;;;;;;;;;;;;;;;-11.31;57.63;97495.53;6221483;28;20284;-69
2023/01/26 01:27:48;;;;;;;;;;;;;;;-11.13;57.88;97490.13;6222248;28;20016;-70
2023/01/26 01:30:50;;;;;;;;;;;;;;;-10.94;57.61;97471.22;6221900;28;19925;-69
2023/01/26 01:33:52;;;;;;;;;;;;;;;-11.10;57.86;97469.03;6222183;28;20310;-69
2023/01/26 01:36:53;;;;;;;;;;;;;;;-11.11;58.17;97469.88;6221892;28;20299;-69
2023/01/26 01:39:56;;;;;;;;;;;;;;;-11.08;58.31;97472.50;6221919;28;19925;-70
2023/01/26 01:42:57;;;;;;;;;;;;;;;-11.11;58.42;97487.66;6221207;28;19926;-69
2023/01/26 01:45:59;;;;;;;;;;;;;;;-11.11;58.56;97482.56;6222204;28;19932;-69
2023/01/26 01:49:04;;;;;;;;;;;;;;;-11.15;58.41;97485.81;6221670;28;19926;-69
2023/01/26 01:52:09;;;;;;;;;;;;;;;-11.10;58.36;97469.03;6221734;28;20386;-69
2023/01/26 01:55:11;;;;;;;;;;;;;;;-11.37;59.02;97467.41;6221684;28;19925;-68
2023/01/26 01:58:15;;;;;;;;;;;;;;;-11.10;58.76;97469.88;6221760;28;19925;-69
2023/01/26 02:01:19;;;;;;;;;;;;;;;-11.31;58.57;97454.91;6221479;28;19925;-69
2023/01/26 02:04:21;;;;;;;;;;;;;;;-11.43;58.83;97454.53;6221611;28;19925;-68
2023/01/26 02:07:23;;;;;;;;;;;;;;;-11.35;58.68;97457.28;6220393;28;20012;-68
2023/01/26 02:10:29;;;;;;;;;;;;;;;-11.45;58.57;97466.31;6221208;28;19925;-68
2023/01/26 02:13:31;;;;;;;;;;;;;;;-11.66;58.47;97473.25;6221210;28;20383;-70
2023/01/26 02:16:31;;;;;;;;;;;;;;;-11.88;59.22;97467.56;6221116;28;19925;-68
2023/01/26 02:19:48;;;;;;;;;;;;;;;-11.59;58.65;97477.72;6221183;28;19925;-69
2023/01/26 02:22:59;;;;;;;;;;;;;;;-11.85;58.47;97474.41;6221093;28;19925;-69
2023/01/26 02:26:10;;;;;;;;;;;;;;;-11.79;58.86;97460.19;6220993;28;19933;-69
2023/01/26 02:29:16;;;;;;;;;;;;;;;-11.80;58.83;97470.31;6220768;28;19925;-71
2023/01/26 02:32:19;;;;;;;;;;;;;;;-11.56;58.52;97472.75;6220894;28;19925;-68
2023/01/26 02:35:24;;;;;;;;;;;;;;;-11.62;58.36;97462.41;6220471;28;19926;-69
2023/01/26 02:38:48;;;;;;;;;;;;;;;-11.96;58.83;97456.31;6220577;28;19925;-69
2023/01/26 02:45:14;;;;;;;;;;;;;;;-12.22;59.71;97463.94;6220350;28;20035;-69
2023/01/26 02:49:45;;;;;;;;;;;;;;;-12.15;60.12;97459.91;6220396;28;19932;-69
2023/01/26 02:51:39;;;;;;;;;;;;;;;-12.28;60.03;97466.25;6220649;28;19948;-69
2023/01/26 02:58:04;;;;;;;;;;;;;;;-12.10;60.18;97467.69;6219596;28;20350;-69
2023/01/26 03:01:08;;;;;;;;;;;;;;;-12.12;60.53;97465.06;6220613;28;19949;-69
2023/01/26 03:04:11;;;;;;;;;;;;;;;-12.14;60.73;97463.31;6220252;28;19926;-70
2023/01/26 03:07:17;;;;;;;;;;;;;;;-12.07;61.15;97467.78;6220495;28;19933;-69
2023/01/26 03:10:24;;;;;;;;;;;;;;;-12.04;60.90;97467.88;6219081;28;20307;-69
2023/01/26 03:13:24;;;;;;;;;;;;;;;-12.13;61.47;97462.50;6219940;28;20407;-69
2023/01/26 03:16:25;;;;;;;;;;;;;;;-11.94;61.68;97463.94;6220200;28;19932;-69
2023/01/26 03:29:32;;;;;;;;;;;;;;;-11.68;62.22;97482.53;6219551;28;20008;-69
2023/01/26 03:32:35;;;;;;;;;;;;;;;-11.79;62.01;97480.50;6219758;28;19932;-68
2023/01/26 03:35:39;;;;;;;;;;;;;;;-11.60;62.10;97483.63;6219776;28;19925;-69
2023/01/26 03:38:40;;;;;;;;;;;;;;;-11.58;61.84;97471.81;6219030;28;19932;-69
2023/01/26 03:58:32;;;;;;;;;;;;;;;-11.95;61.59;97463.09;6223848;28;19933;-69
2023/01/26 04:01:35;;;;;;;;;;;;;;;-11.83;61.59;97455.84;6223799;28;19932;-70
2023/01/26 04:11:25;;;;;;;;;;;;;;;-11.71;61.48;97457.06;6222585;28;19933;-69
2023/01/26 04:21:28;;;;;;;;;;;;;;;-11.60;60.24;97460.78;6223842;28;19926;-69
2023/01/26 04:24:31;;;;;;;;;;;;;;;-11.51;59.53;97463.59;6223749;28;19926;-69
2023/01/26 04:27:35;;;;;;;;;;;;;;;-11.76;60.44;97464.50;6223373;28;19925;-68
2023/01/26 04:30:38;;;;;;;;;;;;;;;-11.71;60.86;97459.59;6223326;28;20028;-69
2023/01/26 04:33:39;;;;;;;;;;;;;;;-11.52;60.05;97464.41;6223234;28;19933;-69
2023/01/26 04:36:43;;;;;;;;;;;;;;;-11.47;59.89;97470.47;6223359;28;20453;-68
2023/01/26 04:39:47;;;;;;;;;;;;;;;-11.41;59.61;97477.41;6223078;28;19925;-68
2023/01/26 04:42:53;;;;;;;;;;;;;;;-11.32;59.68;97478.59;6223216;28;19929;-70
2023/01/26 04:46:01;;;;;;;;;;;;;;;-11.51;59.53;97480.53;6223061;28;19926;-69
2023/01/26 04:49:03;;;;;;;;;;;;;;;-11.31;58.98;97475.22;6222532;28;19929;-69
2023/01/26 04:52:06;;;;;;;;;;;;;;;-11.14;58.77;97477.41;6223450;28;20339;-69
2023/01/26 04:55:10;;;;;;;;;;;;;;;-11.19;58.06;97473.84;6222669;28;19948;-69
2023/01/26 04:58:11;;;;;;;;;;;;;;;-11.34;58.12;97464.97;6222631;28;20023;-69
2023/01/26 05:01:16;;;;;;;;;;;;;;;-11.26;57.66;97477.00;6221669;28;19925;-68
2023/01/26 05:04:20;;;;;;;;;;;;;;;-11.37;56.62;97471.63;6222480;28;19925;-70
2023/01/26 05:07:23;;;;;;;;;;;;;;;-11.56;57.01;97467.66;6222604;28;19925;-69
2023/01/26 05:10:26;;;;;;;;;;;;;;;-11.20;56.88;97469.59;6222198;28;20043;-70
2023/01/26 05:13:34;;;;;;;;;;;;;;;-11.06;56.25;97470.00;6205406;28;20395;-69
2023/01/26 05:16:40;;;;;;;;;;;;;;;-11.24;55.94;97466.09;6222572;28;19925;-69
2023/01/26 05:19:41;;;;;;;;;;;;;;;-11.19;55.80;97473.84;6221772;28;20019;-69
2023/01/26 05:22:42;;;;;;;;;;;;;;;-11.10;56.02;97459.72;6221287;28;19941;-68
2023/01/26 05:25:43;;;;;;;;;;;;;;;-11.14;55.44;97457.94;6221722;28;19953;-69
2023/01/26 05:28:44;;;;;;;;;;;;;;;-11.07;55.30;97458.94;6221915;28;19933;-69
2023/01/26 05:31:45;;;;;;;;;;;;;;;-11.11;54.99;97473.25;6221409;28;19925;-69
2023/01/26 05:34:46;;;;;;;;;;;;;;;-10.89;54.86;97469.66;6221276;28;20445;-69
2023/01/26 05:37:47;;;;;;;;;;;;;;;-10.95;54.30;97459.31;6221498;28;19925;-68
2023/01/26 05:40:50;;;;;;;;;;;;;;;-10.99;54.53;97475.28;6221351;28;19925;-69
2023/01/26 05:43:54;;;;;;;;;;;;;;;-11.08;55.00;97477.56;6221489;28;19925;-69
2023/01/26 05:46:58;;;;;;;;;;;;;;;-10.97;55.48;97475.34;6221572;28;19925;-69
2023/01/26 05:50:00;;;;;;;;;;;;;;;-10.85;54.90;97465.53;6204098;28;20016;-70
2023/01/26 05:53:01;;;;;;;;;;;;;;;-10.75;54.75;97461.56;6221089;28;20342;-69
2023/01/26 05:56:03;;;;;;;;;;;;;;;-10.72;54.52;97476.91;6220654;28;19929;-68
2023/01/26 05:59:08;;;;;;;;;;;;;;;-10.55;54.55;97469.75;6221042;28;19925;-69
2023/01/26 06:02:12;;;;;;;;;;;;;;;-10.58;53.94;97480.69;6220926;28;19932;-69
2023/01/26 06:05:13;;;;;;;;;;;;;;;-10.51;53.73;97491.88;6220859;28;20387;-70
2023/01/26 06:08:14;;;;;;;;;;;;;;;-10.35;53.14;97483.00;6221347;28;20414;-69
2023/01/26 06:11:22;;;;;;;;;;;;;;;-10.21;52.80;97476.53;6220794;28;19933;-69
2023/01/26 06:14:27;;;;;;;;;;;;;;;-10.13;52.04;97457.25;6221322;28;20399;-69
2023/01/26 06:17:33;;;;;;;;;;;;;;;-10.25;52.96;97455.22;6221062;28;20019;-69
2023/01/26 06:20:36;;;;;;;;;;;;;;;-9.97;52.61;97456.78;6220785;28;20314;-69
2023/01/26 06:23:42;;;;;;;;;;;;;;;-10.13;52.59;97444.53;6221174;28;19972;-68
2023/01/26 06:26:43;;;;;;;;;;;;;;;-9.98;52.35;97449.97;6203483;28;19926;-69
2023/01/26 06:29:46;;;;;;;;;;;;;;;-9.98;52.47;97451.66;6220384;28;19932;-70
2023/01/26 06:32:52;;;;;;;;;;;;;;;-9.95;52.51;97455.13;6220681;28;19983;-69
2023/01/26 06:35:54;;;;;;;;;;;;;;;-9.96;52.53;97458.53;6220755;28;20458;-69
2023/01/26 06:38:58;;;;;;;;;;;;;;;-9.86;52.54;97458.75;6220681;28;19925;-69
2023/01/26 06:42:01;;;;;;;;;;;;;;;-9.79;52.25;97452.97;6220703;28;19925;-70
2023/01/26 06:45:05;;;;;;;;;;;;;;;-9.44;51.92;97450.38;6220312;28;19932;-70
2023/01/26 06:48:08;;;;;;;;;;;;;;;-9.56;51.72;97459.47;6220754;28;19926;-69
2023/01/26 06:51:15;;;;;;;;;;;;;;;-9.55;51.94;97456.06;6220136;28;20161;-69
2023/01/26 06:54:16;;;;;;;;;;;;;;;-9.09;50.88;97457.09;6219295;28;19925;-69
2023/01/26 06:57:17;;;;;;;;;;;;;;;-6.25;48.12;97455.63;6219851;28;20468;-70
2023/01/26 07:00:21;;;;;;;;;;;;;;;-1.11;39.75;97461.88;6220554;28;19926;-70
2023/01/26 07:03:24;;;;;;;;;;;;;;;1.67;32.41;97450.91;6220307;28;19925;-69
2023/01/26 07:06:30;;;;;;;;;;;;;;;4.45;30.67;97436.78;6220322;28;19925;-69
2023/01/26 07:09:33;;;;;;;;;;;;;;;6.50;28.26;97422.59;6220044;28;20340;-70
2023/01/26 07:12:39;;;;;;;;;;;;;;;8.02;26.50;97439.69;6220045;28;20019;-69
2023/01/26 07:15:40;;;;;;;;;;;;;;;8.97;23.11;97429.94;6219999;28;19925;-69
2023/01/26 07:18:41;;;;;;;;;;;;;;;9.46;22.98;97452.91;6220329;28;20072;-69
2023/01/26 07:21:48;;;;;;;;;;;;;;;9.37;21.40;97428.81;6220419;28;19926;-69
2023/01/26 07:24:51;;;;;;;;;;;;;;;9.56;21.39;97430.47;6223118;28;20334;-68
2023/01/26 07:27:57;;;;;;;;;;;;;;;9.60;20.76;97434.66;6224506;28;19926;-69
2023/01/26 07:30:58;;;;;;;;;;;;;;;9.82;21.08;97423.84;6223863;28;20340;-69
2023/01/26 07:33:59;;;;;;;;;;;;;;;10.69;19.89;97411.19;6207096;28;20320;-69
2023/01/26 07:37:05;;;;;;;;;;;;;;;11.21;19.43;97402.94;6224774;28;19925;-69
2023/01/26 07:40:07;;;;;;;;;;;;;;;12.16;19.08;97400.75;6223960;28;19933;-70
2023/01/26 07:43:11;;;;;;;;;;;;;;;13.13;18.21;97400.63;6224058;28;19926;-69
2023/01/26 07:46:18;;;;;;;;;;;;;;;13.19;17.58;97389.63;6224696;28;19961;-69
2023/01/26 07:49:22;;;;;;;;;;;;;;;13.87;17.87;97377.94;6224381;28;19925;-70
2023/01/26 07:52:25;;;;;;;;;;;;;;;14.25;17.28;97380.53;6206007;28;19931;-69
2023/01/26 07:55:27;;;;;;;;;;;;;;;15.00;16.57;97385.69;6223679;28;19926;-70
2023/01/26 07:58:30;;;;;;;;;;;;;;;14.84;16.32;97369.22;6206976;28;20387;-70
2023/01/26 08:01:41;;;;;;;;;;;;;;;14.75;17.71;97381.34;6224035;28;19925;-69
2023/01/26 08:04:48;;;;;;;;;;;;;;;15.80;16.48;97378.78;6224121;28;19933;-69
2023/01/26 08:07:52;;;;;;;;;;;;;;;15.99;15.87;97379.00;6224062;28;19925;-69
2023/01/26 08:10:59;;;;;;;;;;;;;;;15.42;15.76;97375.44;6223616;28;19983;-70
2023/01/26 08:14:02;;;;;;;;;;;;;;;15.39;15.59;97380.13;6223285;28;20052;-69
2023/01/26 08:17:05;;;;;;;;;;;;;;;14.81;15.70;97372.94;6223743;28;20493;-69
2023/01/26 08:20:07;;;;;;;;;;;;;;;14.04;16.42;97374.13;6205999;28;19972;-69
2023/01/26 08:23:14;;;;;;;;;;;;;;;15.05;16.27;97364.97;6223568;28;19921;-69
2023/01/26 08:26:18;;;;;;;;;;;;;;;15.37;15.03;97371.44;6223459;28;19925;-69
2023/01/26 08:29:21;;;;;;;;;;;;;;;14.94;15.90;97364.06;6221719;28;19922;-70
2023/01/26 08:32:27;;;;;;;;;;;;;;;15.12;15.51;97368.00;6223452;28;19925;-69
2023/01/26 08:35:30;;;;;;;;;;;;;;;14.27;15.86;97349.50;6222980;28;19933;-69
2023/01/26 08:38:34;;;;;;;;;;;;;;;13.78;16.34;97358.28;6222885;28;19932;-70
2023/01/26 08:41:38;;;;;;;;;;;;;;;12.96;16.86;97360.31;6223358;28;20271;-69
2023/01/26 08:44:39;;;;;;;;;;;;;;;12.50;17.17;97358.06;6222389;28;20314;-69
2023/01/26 08:47:48;;;;;;;;;;;;;;;12.67;17.14;97366.69;6223029;28;20048;-70
2023/01/26 08:50:55;;;;;;;;;;;;;;;11.74;17.84;97353.19;6222925;28;19926;-69
2023/01/26 08:53:59;;;;;;;;;;;;;;;10.45;19.24;97352.09;6222827;28;19925;-69
2023/01/26 08:57:02;;;;;;;;;;;;;;;10.50;19.24;97337.72;6222826;28;19925;-69
2023/01/26 09:00:08;;;;;;;;;;;;;;;10.29;19.59;97324.00;6222716;28;19925;-68
2023/01/26 09:03:12;;;;;;;;;;;;;;;10.24;19.58;97327.78;6222644;28;19925;-70
2023/01/26 09:06:15;;;;;;;;;;;;;;;10.90;19.34;97318.75;6205506;28;19930;-69
2023/01/26 09:09:21;;;;;;;;;;;;;;;11.15;18.84;97326.03;6205404;28;20315;-69
2023/01/26 09:12:27;;;;;;;;;;;;;;;10.91;19.24;97325.72;6222590;28;19925;-70
2023/01/26 09:15:33;;;;;;;;;;;;;;;10.41;19.60;97313.72;6222631;28;19926;-69
2023/01/26 09:18:35;;;;;;;;;;;;;;;10.17;19.98;97303.63;6222533;28;19925;-68
2023/01/26 09:21:39;;;;;;;;;;;;;;;10.03;20.33;97306.19;6222262;28;19925;-70
2023/01/26 09:24:40;;;;;;;;;;;;;;;9.73;20.63;97282.44;6221613;28;19926;-69
2023/01/26 09:27:42;;;;;;;;;;;;;;;9.72;20.45;97286.84;6222315;28;19937;-69
2023/01/26 09:30:43;;;;;;;;;;;;;;;9.58;20.75;97292.00;6221632;28;19952;-70
2023/01/26 09:33:45;;;;;;;;;;;;;;;8.70;21.52;97287.84;6221883;28;19926;-69
2023/01/26 09:36:48;;;;;;;;;;;;;;;8.21;22.27;97283.25;6204961;28;19973;-69
2023/01/26 09:39:55;;;;;;;;;;;;;;;8.15;22.42;97298.41;6221602;28;19925;-70
2023/01/26 09:43:18;;;;;;;;;;;;;;;8.18;22.43;97287.78;6203927;28;20299;-70
2023/01/26 09:46:31;;;;;;;;;;;;;;;8.77;21.96;97282.22;6220792;28;20068;-70
2023/01/26 09:49:37;;;;;;;;;;;;;;;9.20;21.74;97280.00;6221654;28;20319;-69
2023/01/26 09:52:51;;;;;;;;;;;;;;;10.10;20.86;97282.06;6221488;28;19925;-70
2023/01/26 09:55:54;;;;;;;;;;;;;;;10.26;20.59;97268.91;6221361;28;19933;-69
2023/01/26 09:59:13;;;;;;;;;;;;;;;10.16;20.66;97259.84;6221540;28;19926;-70
2023/01/26 10:02:33;;;;;;;;;;;;;;;9.96;20.79;97260.13;6203636;28;19925;-69
2023/01/26 10:05:34;;;;;;;;;;;;;;;9.95;20.82;97266.31;6221501;28;19925;-68
2023/01/26 10:08:42;;;;;;;;;;;;;;;9.78;20.80;97247.06;6221218;28;19925;-69
2023/01/26 10:11:49;;;;;;;;;;;;;;;9.25;21.34;97245.59;6221579;28;19972;-68
2023/01/26 10:15:06;;;;;;;;;;;;;;;9.05;21.75;97253.69;6221122;28;20387;-70
2023/01/26 10:18:18;;;;;;;;;;;;;;;8.66;22.04;97239.09;6220568;28;19964;-69
2023/01/26 10:21:24;;;;;;;;;;;;;;;8.23;22.43;97260.41;6220588;28;19925;-70
2023/01/26 10:24:59;;;;;;;;;;;;;;;7.77;23.08;97251.31;6219165;28;19925;-70
2023/01/26 10:28:16;;;;;;;;;;;;;;;7.38;23.37;97245.25;6219763;28;19926;-70
2023/01/26 10:31:21;;;;;;;;;;;;;;;7.01;23.74;97248.69;6219491;28;20030;-70
2023/01/26 10:34:26;;;;;;;;;;;;;;;6.83;24.21;97268.66;6220922;28;19979;-71
2023/01/26 10:37:33;;;;;;;;;;;;;;;6.81;24.03;97259.19;6220584;28;19925;-70
2023/01/26 10:40:43;;;;;;;;;;;;;;;6.22;25.02;97258.19;6220281;28;20395;-69
2023/01/26 10:43:58;;;;;;;;;;;;;;;5.20;26.21;97256.06;6220759;28;20011;-70
2023/01/26 10:47:22;;;;;;;;;;;;;;;3.45;28.31;97259.34;6219447;28;19922;-70
2023/01/26 10:50:26;;;;;;;;;;;;;;;1.88;31.31;97260.16;6220356;28;19925;-70
2023/01/26 10:53:37;;;;;;;;;;;;;;;0.58;33.32;97270.75;6204848;28;20458;-71
2023/01/26 10:56:44;;;;;;;;;;;;;;;-0.07;34.71;97264.13;6221030;28;20394;-71
2023/01/26 10:59:55;;;;;;;;;;;;;;;-0.46;35.45;97271.63;6207905;28;20302;-70
2023/01/26 11:07:25;;;;;;;;;;;;;;;-1.06;36.85;97268.16;6225418;28;20008;-70
2023/01/26 11:11:06;;;;;;;;;;;;;;;-1.20;37.62;97276.06;6206424;28;19925;-69
2023/01/26 11:14:25;;;;;;;;;;;;;;;-1.44;37.63;97262.59;6219844;28;19936;-69
2023/01/26 11:17:45;;;;;;;;;;;;;;;-1.44;37.91;97248.81;6207618;28;20417;-70
2023/01/26 11:20:58;;;;;;;;;;;;;;;-1.66;37.74;97255.94;6225073;28;19931;-69
2023/01/26 11:24:20;;;;;;;;;;;;;;;-1.81;38.04;97252.66;6224094;28;20032;-71
2023/01/26 11:27:35;;;;;;;;;;;;;;;-2.12;38.29;97246.06;6223558;28;19925;-70
2023/01/26 11:30:43;;;;;;;;;;;;;;;-2.15;39.13;97264.13;6224952;28;20067;-71
2023/01/26 11:33:57;;;;;;;;;;;;;;;-2.33;39.53;97270.28;6207504;28;19949;-70
2023/01/26 11:37:33;;;;;;;;;;;;;;;-2.41;39.60;97288.38;6224825;28;20028;-70
2023/01/26 11:40:44;;;;;;;;;;;;;;;-2.47;39.73;97270.38;6224734;28;20407;-70
2023/01/26 11:44:06;;;;;;;;;;;;;;;-2.56;39.72;97270.47;6223516;28;19930;-71
2023/01/26 11:47:28;;;;;;;;;;;;;;;-2.63;39.58;97259.34;6224833;28;20015;-71
2023/01/26 11:50:42;;;;;;;;;;;;;;;-2.87;40.26;97265.50;6206122;28;20310;-72
2023/01/26 11:53:54;;;;;;;;;;;;;;;-3.02;40.42;97255.28;6207003;28;19931;-71
2023/01/26 11:57:07;;;;;;;;;;;;;;;-3.11;40.14;97291.34;6206307;28;19932;-72
2023/01/26 12:00:17;;;;;;;;;;;;;;;-3.30;40.87;97276.00;6206369;28;19925;-71
2023/01/26 12:03:33;;;;;;;;;;;;;;;-3.35;41.02;97270.00;6206147;28;19972;-71
2023/01/26 12:06:38;;;;;;;;;;;;;;;-3.44;40.93;97267.47;6206421;28;19929;-70
2023/01/26 12:09:48;;;;;;;;;;;;;;;-3.45;40.97;97261.47;6222050;28;20414;-69
2023/01/26 12:12:54;;;;;;;;;;;;;;;-3.54;41.13;97258.91;6222561;28;19925;-70
2023/01/26 12:16:03;;;;;;;;;;;;;;;-3.75;41.75;97262.41;6206306;28;19960;-69
2023/01/26 12:19:11;;;;;;;;;;;;;;;-3.78;41.57;97277.84;6222348;28;19931;-70
2023/01/26 12:22:19;;;;;;;;;;;;;;;-3.95;41.69;97289.88;6223465;28;20036;-70
2023/01/26 12:25:27;;;;;;;;;;;;;;;-4.07;42.15;97290.75;6223660;28;20443;-70
2023/01/26 12:28:29;;;;;;;;;;;;;;;-4.16;42.68;97276.19;6206065;28;19925;-70
2023/01/26 12:31:36;;;;;;;;;;;;;;;-4.39;42.85;97277.88;6205542;28;20410;-70
2023/01/26 12:34:38;;;;;;;;;;;;;;;-4.36;43.50;97283.00;6221853;28;19925;-70
2023/01/26 12:37:58;;;;;;;;;;;;;;;-4.30;43.24;97268.47;6223199;28;19926;-69
2023/01/26 12:41:10;;;;;;;;;;;;;;;-4.37;43.39;97291.59;6223008;28;20020;-69
2023/01/26 12:44:16;;;;;;;;;;;;;;;-4.41;43.89;97279.63;6223295;28;19932;-70
2023/01/26 12:47:29;;;;;;;;;;;;;;;-4.38;43.76;97248.78;6223287;28;20036;-70
2023/01/26 12:50:36;;;;;;;;;;;;;;;-4.28;43.89;97245.34;6222881;28;19932;-70
2023/01/26 12:53:59;;;;;;;;;;;;;;;-4.26;43.45;97269.31;6222607;28;20391;-70
2023/01/26 12:57:04;;;;;;;;;;;;;;;-4.20;43.50;97253.91;6222764;28;20379;-69
2023/01/26 13:00:20;;;;;;;;;;;;;;;-4.25;43.64;97263.31;6222659;28;19929;-70
2023/01/26 13:03:29;;;;;;;;;;;;;;;-4.24;43.77;97244.50;6222788;28;19925;-69
2023/01/26 13:06:36;;;;;;;;;;;;;;;-4.30;44.47;97232.50;6221219;28;19932;-69
2023/01/26 13:09:59;;;;;;;;;;;;;;;-4.48;44.38;97241.91;6205234;28;20063;-69
2023/01/26 13:13:14;;;;;;;;;;;;;;;-4.34;44.60;97229.94;6221857;28;19955;-69
2023/01/26 13:16:18;;;;;;;;;;;;;;;-4.54;45.19;97242.78;6222245;28;20059;-69
2023/01/26 13:19:36;;;;;;;;;;;;;;;-4.62;45.53;97249.63;6204744;28;19932;-71
2023/01/26 13:22:40;;;;;;;;;;;;;;;-4.80;45.23;97258.16;6221521;28;19929;-70
2023/01/26 13:25:47;;;;;;;;;;;;;;;-4.80;45.38;97263.28;6221118;28;19932;-70
2023/01/26 13:28:51;;;;;;;;;;;;;;;-4.78;45.88;97269.28;6222129;28;19947;-71
2023/01/26 13:31:55;;;;;;;;;;;;;;;-4.87;45.99;97269.25;6204555;28;19932;-70
2023/01/26 13:35:01;;;;;;;;;;;;;;;-4.91;46.14;97272.69;6220744;28;19933;-71
2023/01/26 13:38:14;;;;;;;;;;;;;;;-4.95;46.27;97271.84;6221989;28;19925;-70
2023/01/26 13:41:19;;;;;;;;;;;;;;;-5.08;46.27;97276.06;6221737;28;20012;-71
2023/01/26 13:44:44;;;;;;;;;;;;;;;-4.92;46.41;97283.81;6221990;28;20027;-70
2023/01/26 13:47:49;;;;;;;;;;;;;;;-5.10;47.14;97267.50;6221683;28;20426;-69
2023/01/26 13:50:58;;;;;;;;;;;;;;;-5.05;47.06;97273.50;6221558;28;20003;-70
2023/01/26 13:54:10;;;;;;;;;;;;;;;-5.20;47.50;97265.75;6203889;28;19933;-70
2023/01/26 13:57:19;;;;;;;;;;;;;;;-5.03;46.81;97253.84;6221437;28;20016;-70
2023/01/26 14:00:22;;;;;;;;;;;;;;;-5.04;46.78;97264.09;6221473;28;20067;-69
2023/01/26 14:03:25;;;;;;;;;;;;;;;-4.98;47.68;97262.41;6220224;28;19933;-70
2023/01/26 14:06:28;;;;;;;;;;;;;;;-5.24;47.18;97251.19;6221359;28;20016;-69
2023/01/26 14:09:32;;;;;;;;;;;;;;;-5.09;47.20;97248.69;6203989;28;20402;-69
2023/01/26 14:12:40;;;;;;;;;;;;;;;-5.12;47.80;97248.69;6203621;28;19976;-70
2023/01/26 14:15:44;;;;;;;;;;;;;;;-5.09;47.29;97243.56;6203289;28;19984;-69
2023/01/26 14:18:48;;;;;;;;;;;;;;;-5.15;47.55;97248.69;6220780;28;20016;-72
2023/01/26 14:21:54;;;;;;;;;;;;;;;-5.39;47.96;97251.16;6219459;28;19929;-70
2023/01/26 14:24:58;;;;;;;;;;;;;;;-5.20;48.40;97260.63;6221123;28;19980;-70
2023/01/26 14:28:01;;;;;;;;;;;;;;;-5.31;48.54;97259.75;6220733;28;19925;-70
2023/01/26 14:31:20;;;;;;;;;;;;;;;-5.25;48.09;97257.19;6219305;28;19926;-70
2023/01/26 14:34:25;;;;;;;;;;;;;;;-5.48;48.59;97257.09;6203136;28;19932;-69
2023/01/26 14:37:29;;;;;;;;;;;;;;;-5.44;48.33;97251.97;6220676;28;20347;-69
2023/01/26 14:40:32;;;;;;;;;;;;;;;-5.51;48.82;97257.94;6220631;28;19925;-71
2023/01/26 14:43:45;;;;;;;;;;;;;;;-5.48;48.28;97259.66;6202927;28;20451;-71
2023/01/26 14:46:54;;;;;;;;;;;;;;;-5.59;48.53;97257.06;6219339;28;19932;-71
2023/01/26 14:50:10;;;;;;;;;;;;;;;-5.61;48.94;97248.50;6220593;28;20255;-71
2023/01/26 14:53:38;;;;;;;;;;;;;;;-5.58;48.66;97248.50;6203053;28;19948;-71
2023/01/26 14:56:45;;;;;;;;;;;;;;;-5.82;48.95;97253.53;6182297;28;19929;-70
2023/01/26 14:59:50;;;;;;;;;;;;;;;-5.80;49.20;97256.94;6186183;28;19932;-70
2023/01/26 15:02:54;;;;;;;;;;;;;;;-5.73;48.97;97243.31;6218956;28;19932;-71
2023/01/26 15:06:17;;;;;;;;;;;;;;;-5.91;49.75;97250.06;6219165;28;20019;-70
2023/01/26 15:09:24;;;;;;;;;;;;;;;-5.93;49.48;97256.06;6202946;28;19925;-70
2023/01/26 15:12:32;;;;;;;;;;;;;;;-6.10;49.89;97248.25;6202971;28;19948;-70
2023/01/26 15:15:47;;;;;;;;;;;;;;;-6.01;50.02;97253.44;6203368;28;19929;-70
2023/01/26 15:19:05;;;;;;;;;;;;;;;-6.07;50.12;97253.41;6202812;28;20319;-70
2023/01/26 15:22:21;;;;;;;;;;;;;;;-6.03;49.46;97246.56;6202497;28;19925;-71
2023/01/26 15:25:28;;;;;;;;;;;;;;;-6.01;50.02;97230.38;6218811;28;20427;-70
2023/01/26 15:28:31;;;;;;;;;;;;;;;-6.06;50.08;97229.47;6202752;28;19933;-70
2023/01/26 15:31:35;;;;;;;;;;;;;;;-6.08;50.24;97213.28;6202277;28;20445;-70
2023/01/26 15:34:40;;;;;;;;;;;;;;;-5.93;49.47;97208.19;6220323;28;19932;-70
2023/01/26 15:37:43;;;;;;;;;;;;;;;-6.00;49.88;97210.72;6218840;28;20409;-70
2023/01/26 15:40:46;;;;;;;;;;;;;;;-6.11;50.03;97226.06;6186259;28;19926;-73
2023/01/26 15:43:49;;;;;;;;;;;;;;;-6.20;50.08;97220.84;6219472;28;20008;-70
2023/01/26 15:46:54;;;;;;;;;;;;;;;-6.18;50.10;97199.53;6223316;28;19940;-70
2023/01/26 15:49:57;;;;;;;;;;;;;;;-6.08;50.24;97192.78;6224478;28;19925;-70
2023/01/26 15:53:00;;;;;;;;;;;;;;;-6.09;49.84;97188.47;6207025;28;19925;-71
2023/01/26 15:56:04;;;;;;;;;;;;;;;-6.17;50.30;97193.59;6224239;28;20019;-71
2023/01/26 15:59:06;;;;;;;;;;;;;;;-6.08;49.84;97192.78;6206240;28;19922;-70
2023/01/26 16:02:18;;;;;;;;;;;;;;;-6.10;50.33;97189.34;6223158;28;20410;-72
2023/01/26 16:05:22;;;;;;;;;;;;;;;-6.11;50.32;97190.19;6224111;28;20399;-71
2023/01/26 16:08:26;;;;;;;;;;;;;;;-6.23;50.42;97200.34;6223408;28;19976;-71
2023/01/26 16:11:30;;;;;;;;;;;;;;;-6.19;50.61;97186.72;6222907;28;19926;-71
2023/01/26 16:14:33;;;;;;;;;;;;;;;-6.20;50.56;97202.94;6224022;28;20023;-70
2023/01/26 16:17:37;;;;;;;;;;;;;;;-6.18;49.84;97198.69;6206440;28;19932;-71
2023/01/26 16:20:41;;;;;;;;;;;;;;;-6.05;49.90;97192.78;6223628;28;19965;-70
2023/01/26 16:23:45;;;;;;;;;;;;;;;-6.15;50.19;97198.69;6222261;28;19937;-70
2023/01/26 16:26:48;;;;;;;;;;;;;;;-6.16;50.02;97195.28;6223484;28;19931;-69
2023/01/26 16:29:50;;;;;;;;;;;;;;;-6.14;49.67;97203.84;6223312;28;20027;-71
2023/01/26 16:32:53;;;;;;;;;;;;;;;-6.17;49.67;97195.25;6205964;28;19968;-70
2023/01/26 16:35:55;;;;;;;;;;;;;;;-6.28;49.66;97186.66;6223312;28;19925;-70
2023/01/26 16:38:58;;;;;;;;;;;;;;;-6.33;50.05;97179.81;6205994;28;20497;-70
2023/01/26 16:42:01;;;;;;;;;;;;;;;-6.26;50.40;97179.84;6205916;28;19925;-72
2023/01/26 16:45:05;;;;;;;;;;;;;;;-6.45;50.80;97184.88;6223369;28;20322;-70
2023/01/26 16:48:12;;;;;;;;;;;;;;;-6.47;50.84;97189.13;6223105;28;19925;-71
2023/01/26 16:51:18;;;;;;;;;;;;;;;-6.49;50.77;97177.16;6221806;28;20338;-70
2023/01/26 16:54:21;;;;;;;;;;;;;;;-6.56;50.63;97166.03;6222960;28;20063;-70
2023/01/26 16:57:27;;;;;;;;;;;;;;;-6.61;50.66;97172.81;6221836;28;19935;-70
2023/01/26 17:00:34;;;;;;;;;;;;;;;-6.46;50.40;97185.69;6221602;28;19936;-70
2023/01/26 17:03:37;;;;;;;;;;;;;;;-6.43;50.32;97193.38;6205558;28;19979;-70